Time;durP1;ratioP1;P1;durP2;ratioP2;P2;SDS_P1;SDS_P2;PMS_P1;PMS_P2;Temp;Humidity;BMP_temperature;BMP_pressure;BME280_temperature;BME280_humidity;BME280_pressure;Samples;Min_cycle;Max_cycle;Signal;HPM_P1;HPM_P2
2021/12/15 00:01:59;;;;;;;49.87;24.90;;;;;;;1.59;68.17;101674.59;5426457;32;32967;-73
2021/12/15 00:05:05;;;;;;;41.60;23.33;;;;;;;1.49;69.20;101657.16;5404183;32;33873;-68
2021/12/15 00:08:11;;;;;;;53.57;24.60;;;;;;;2.29;65.05;101660.22;5409735;32;34902;-72
2021/12/15 00:11:13;;;;;;;45.93;24.23;;;;;;;1.74;66.86;101658.44;5405272;32;34271;-68
2021/12/15 00:14:18;;;;;;;49.33;24.60;;;;;;;2.31;64.25;101648.13;5441838;32;35470;-73
2021/12/15 00:17:22;;;;;;;50.00;24.97;;;;;;;1.77;66.82;101655.94;5429846;32;34661;-73
2021/12/15 00:20:28;;;;;;;47.33;25.00;;;;;;;1.99;64.97;101651.94;5403768;32;33081;-74
2021/12/15 00:23:31;;;;;;;49.60;24.70;;;;;;;2.49;64.28;101642.34;5406681;32;34007;-70
2021/12/15 00:26:35;;;;;;;47.07;25.07;;;;;;;2.26;65.31;101649.81;5390719;32;33038;-73
2021/12/15 00:29:38;;;;;;;53.23;26.47;;;;;;;2.01;65.34;101652.88;5423585;32;33025;-74
2021/12/15 00:32:41;;;;;;;47.83;24.67;;;;;;;2.63;63.60;101651.19;5418121;32;34176;-74
2021/12/15 00:35:43;;;;;;;47.57;25.03;;;;;;;2.57;63.31;101645.03;5434329;32;34406;-69
2021/12/15 00:38:45;;;;;;;53.03;25.53;;;;;;;2.65;63.17;101649.50;5428997;32;34077;-72
2021/12/15 00:41:49;;;;;;;48.47;24.65;;;;;;;1.25;68.36;101668.81;5431315;32;34483;-68
2021/12/15 00:44:52;;;;;;;53.92;25.85;;;;;;;1.30;69.40;101674.09;5411515;32;36873;-73
2021/12/15 00:47:55;;;;;;;47.73;24.47;;;;;;;2.12;65.63;101672.91;5411863;32;34494;-69
2021/12/15 00:50:57;;;;;;;51.20;25.57;;;;;;;2.68;63.26;101665.09;5424497;32;34403;-73
2021/12/15 00:53:59;;;;;;;55.83;25.70;;;;;;;2.26;63.77;101667.09;5412771;32;36156;-68
2021/12/15 00:57:02;;;;;;;47.70;25.37;;;;;;;2.68;62.54;101670.28;5408706;32;34935;-70
2021/12/15 01:00:08;;;;;;;47.47;24.40;;;;;;;3.09;60.62;101666.47;5406517;32;34184;-68
2021/12/15 01:03:11;;;;;;;47.87;24.63;;;;;;;2.65;62.29;101667.66;5411763;32;34207;-73
2021/12/15 01:06:18;;;;;;;48.67;25.60;;;;;;;1.54;66.86;101691.78;5423657;32;34903;-71
2021/12/15 01:09:25;;;;;;;50.97;24.57;;;;;;;1.37;67.30;101683.72;5423561;32;33971;-68
2021/12/15 01:22:32;;;;;;;47.13;23.53;;;;;;;1.84;66.47;101683.69;5421506;32;33975;-72
2021/12/15 01:25:39;;;;;;;47.10;23.73;;;;;;;1.39;67.11;101700.16;5403298;32;35346;-70
2021/12/15 01:28:42;;;;;;;46.23;22.77;;;;;;;1.98;65.72;101684.78;5443255;32;34502;-74
2021/12/15 01:31:44;;;;;;;48.27;23.73;;;;;;;2.46;64.90;101678.66;5428606;32;34559;-69
2021/12/15 01:34:47;;;;;;;42.30;22.33;;;;;;;2.13;64.21;101666.03;5404975;32;33177;-69
2021/12/15 01:37:49;;;;;;;40.50;21.47;;;;;;;2.08;66.09;101663.38;5422407;32;34030;-73
2021/12/15 01:40:52;;;;;;;44.33;22.10;;;;;;;1.43;67.71;101670.87;5418801;32;34226;-69
2021/12/15 01:47:09;;;;;;;;;;;;;;;1.00;70.77;101676.94;5416914;32;34182;-73
2021/12/15 01:50:12;;;;;;;44.83;22.63;;;;;;;1.28;69.51;101684.37;5418991;32;34334;-74
2021/12/15 01:53:14;;;;;;;47.33;21.65;;;;;;;2.02;67.39;101681.41;5429052;32;34221;-70
2021/12/15 01:56:17;;;;;;;46.37;22.63;;;;;;;2.28;65.95;101674.03;5417386;32;34498;-72
2021/12/15 01:59:23;;;;;;;44.47;21.60;;;;;;;2.75;63.18;101676.44;5408981;32;33352;-69
2021/12/15 02:02:26;;;;;;;42.03;20.87;;;;;;;2.82;63.55;101677.41;5415978;32;32852;-72
2021/12/15 02:05:29;;;;;;;40.50;21.60;;;;;;;2.16;65.04;101677.31;5423138;32;34141;-70
2021/12/15 02:08:31;;;;;;;48.70;23.23;;;;;;;3.03;62.76;101675.09;5427741;32;34621;-69
2021/12/15 02:11:34;;;;;;;45.03;23.17;;;;;;;2.30;65.10;101672.34;5413742;32;35145;-68
2021/12/15 02:14:37;;;;;;;44.13;22.13;;;;;;;2.53;64.96;101670.09;5446300;32;34123;-68
2021/12/15 02:17:40;;;;;;;43.03;21.60;;;;;;;3.19;61.86;101670.94;5418841;32;33221;-68
2021/12/15 02:20:49;;;;;;;46.70;22.60;;;;;;;3.21;61.47;101674.41;5427583;32;33033;-70
2021/12/15 02:23:55;;;;;;;45.30;23.03;;;;;;;3.02;62.04;101662.06;5431987;32;34030;-68
2021/12/15 02:27:00;;;;;;;42.43;22.77;;;;;;;2.92;61.77;101668.88;5410640;32;34317;-68
2021/12/15 02:30:31;;;;;;;46.97;23.33;;;;;;;2.85;62.52;101667.94;5407753;32;34652;-69
2021/12/15 02:37:18;;;;;;;46.40;22.27;;;;;;;3.08;61.99;101665.59;5343264;32;33472;-73
2021/12/15 02:40:21;;;;;;;46.80;21.70;;;;;;;2.10;66.40;101671.16;5389306;32;34531;-73
2021/12/15 02:43:23;;;;;;;44.77;22.83;;;;;;;2.54;64.97;101665.78;5405655;32;33887;-69
2021/12/15 02:46:29;;;;;;;43.50;22.67;;;;;;;2.25;64.45;101673.97;5418943;32;34262;-73
2021/12/15 02:49:31;;;;;;;44.97;22.40;;;;;;;1.51;69.06;101671.00;5403651;32;35495;-73
2021/12/15 02:52:35;;;;;;;45.03;21.77;;;;;;;2.35;65.71;101662.03;5402447;32;34047;-69
2021/12/15 02:55:37;;;;;;;46.67;23.62;;;;;;;2.60;64.30;101660.66;5412118;32;34775;-73
2021/12/15 02:58:49;;;;;;;43.60;23.73;;;;;;;2.24;65.41;101666.19;5398176;32;34709;-69
2021/12/15 03:05:09;;;;;;;49.17;23.63;;;;;;;1.19;68.98;101685.94;5398817;32;34003;-68
2021/12/15 03:08:19;;;;;;;46.97;23.23;;;;;;;2.29;66.41;101674.91;5416900;32;35601;-73
2021/12/15 03:18:07;;;;;;;48.00;23.37;;;;;;;0.96;71.13;101663.03;5415797;32;33143;-69
2021/12/15 03:21:15;;;;;;;48.93;23.57;;;;;;;2.22;66.34;101647.13;5394997;32;33007;-75
2021/12/15 03:24:20;;;;;;;49.33;24.73;;;;;;;1.10;70.28;101654.69;5407681;32;33106;-74
2021/12/15 03:33:14;;;;;;;45.10;23.07;;;;;;;1.20;70.15;101649.72;5389692;32;34216;-70
2021/12/15 03:37:23;;;;;;;49.40;23.83;;;;;;;2.27;65.41;101648.09;5431687;32;34313;-74
2021/12/15 03:40:35;;;;;;;50.23;24.50;;;;;;;2.91;63.63;101649.84;5423615;32;34188;-68
2021/12/15 03:43:39;;;;;;;53.75;24.12;;;;;;;2.86;62.54;101635.91;5404496;32;34179;-68
2021/12/15 03:46:41;;;;;;;46.47;23.77;;;;;;;3.10;61.68;101647.47;5434097;32;34743;-73
2021/12/15 03:49:44;;;;;;;51.03;22.80;;;;;;;2.72;62.92;101646.13;5421193;32;34683;-73
2021/12/15 03:52:50;;;;;;;44.27;22.17;;;;;;;1.88;65.62;101651.81;5390924;32;33924;-72
2021/12/15 03:55:53;;;;;;;51.93;24.63;;;;;;;2.11;65.69;101649.56;5426171;32;32894;-69
2021/12/15 03:58:57;;;;;;;47.10;24.25;;;;;;;1.54;68.26;101651.19;5416075;32;35644;-69
2021/12/15 04:02:00;;;;;;;46.37;24.20;;;;;;;1.55;68.05;101644.31;5423399;32;35445;-69
2021/12/15 04:05:04;;;;;;;50.33;23.00;;;;;;;1.65;68.59;101647.94;5430657;32;34814;-69
2021/12/15 04:08:06;;;;;;;44.40;23.12;;;;;;;2.00;66.97;101649.41;5427428;32;34123;-68
2021/12/15 04:11:13;;;;;;;47.73;23.77;;;;;;;1.73;68.08;101656.72;5407665;32;34384;-69
2021/12/15 04:14:21;;;;;;;46.10;23.23;;;;;;;1.50;69.24;101664.09;5408205;32;34690;-75
2021/12/15 04:17:26;;;;;;;48.83;23.23;;;;;;;1.14;70.50;101659.94;5431080;32;35080;-69
2021/12/15 04:20:32;;;;;;;53.37;24.57;;;;;;;0.89;71.61;101663.75;5413103;32;33899;-75
2021/12/15 04:23:34;;;;;;;52.40;24.50;;;;;;;0.75;72.73;101668.66;5428418;32;35909;-73
2021/12/15 04:26:37;;;;;;;52.50;25.40;;;;;;;0.92;71.72;101661.25;5432870;32;33469;-73
2021/12/15 04:29:40;;;;;;;54.03;23.73;;;;;;;0.63;72.69;101670.09;5403371;32;34576;-74
2021/12/15 04:32:45;;;;;;;49.67;24.70;;;;;;;1.16;71.29;101668.63;5432959;32;35325;-69
2021/12/15 04:35:49;;;;;;;48.07;23.10;;;;;;;1.23;70.77;101678.28;5405932;32;36037;-69
2021/12/15 04:38:52;;;;;;;46.45;21.35;;;;;;;2.15;67.81;101679.91;5430676;32;35216;-74
2021/12/15 04:41:57;;;;;;;43.70;22.00;;;;;;;3.04;63.36;101674.22;5427684;32;34124;-72
2021/12/15 04:45:00;;;;;;;47.73;22.97;;;;;;;2.90;63.08;101678.38;5420490;32;34841;-69
2021/12/15 04:48:02;;;;;;;43.47;21.40;;;;;;;3.06;62.35;101676.84;5431105;32;34000;-69
2021/12/15 04:51:05;;;;;;;42.90;21.90;;;;;;;3.28;61.32;101678.81;5409386;32;34072;-74
2021/12/15 04:54:07;;;;;;;49.90;23.63;;;;;;;2.50;64.22;101685.59;5416554;32;34348;-74
2021/12/15 04:57:12;;;;;;;44.27;22.33;;;;;;;2.77;63.24;101687.75;5405032;32;34577;-69
2021/12/15 05:00:21;;;;;;;45.70;22.20;;;;;;;2.07;64.71;101699.66;5399935;32;34006;-74
2021/12/15 05:03:24;;;;;;;44.33;22.93;;;;;;;2.64;63.94;101678.91;5425703;32;33848;-73
2021/12/15 05:06:26;;;;;;;49.03;23.33;;;;;;;2.05;65.55;101696.12;5431497;32;34907;-74
2021/12/15 05:09:29;;;;;;;46.80;22.97;;;;;;;2.26;65.37;101709.47;5435046;32;33076;-73
2021/12/15 05:12:32;;;;;;;46.40;23.23;;;;;;;2.68;63.77;101710.97;5425727;32;34950;-69
2021/12/15 05:15:35;;;;;;;44.97;23.03;;;;;;;2.76;64.38;101714.53;5399959;32;34092;-70
2021/12/15 05:18:38;;;;;;;45.33;23.25;;;;;;;2.01;65.51;101723.75;5391559;32;34385;-70
2021/12/15 05:21:41;;;;;;;48.72;23.98;;;;;;;2.63;64.88;101708.28;5430248;32;34513;-69
2021/12/15 05:24:44;;;;;;;52.00;23.40;;;;;;;2.56;63.35;101711.66;5415704;32;32807;-74
2021/12/15 05:27:47;;;;;;;51.17;24.40;;;;;;;2.34;65.41;101714.78;5423905;32;35488;-69
2021/12/15 05:30:50;;;;;;;45.60;24.03;;;;;;;2.09;65.34;101735.13;5423495;32;34912;-70
2021/12/15 05:33:53;;;;;;;52.45;26.95;;;;;;;2.28;66.33;101732.84;5429352;32;33920;-74
2021/12/15 05:36:55;;;;;;;52.80;23.47;;;;;;;3.04;63.54;101725.31;5426041;32;33812;-73
2021/12/15 05:39:58;;;;;;;50.47;24.10;;;;;;;1.81;68.14;101733.78;5419030;32;34225;-74
2021/12/15 05:43:01;;;;;;;47.63;24.83;;;;;;;2.55;66.20;101730.66;5433679;32;33975;-73
2021/12/15 05:46:03;;;;;;;45.90;22.80;;;;;;;3.14;63.41;101735.81;5431524;32;33972;-73
2021/12/15 05:49:06;;;;;;;44.75;24.00;;;;;;;2.10;66.71;101749.84;5401723;32;33914;-73
2021/12/15 05:52:09;;;;;;;47.77;25.43;;;;;;;2.08;67.03;101748.06;5435193;32;34077;-73
2021/12/15 05:55:12;;;;;;;51.87;25.60;;;;;;;1.79;67.84;101760.50;5420932;32;33985;-69
2021/12/15 05:58:15;;;;;;;48.50;26.15;;;;;;;1.68;69.51;101764.63;5423598;32;34121;-69
2021/12/15 06:01:18;;;;;;;50.93;25.67;;;;;;;1.74;69.84;101767.31;5392362;32;34662;-69
2021/12/15 06:04:21;;;;;;;48.40;24.87;;;;;;;1.72;70.23;101775.06;5406239;32;33665;-74
2021/12/15 06:07:25;;;;;;;48.28;25.98;;;;;;;0.84;72.40;101787.06;5390420;32;33302;-73
2021/12/15 06:10:29;;;;;;;50.23;25.23;;;;;;;1.52;70.26;101782.47;5405647;32;35689;-74
2021/12/15 06:13:31;;;;;;;;;;;;;;;1.12;71.13;101791.12;5420602;32;33806;-72
2021/12/15 06:16:35;;;;;;;46.43;25.43;;;;;;;1.32;70.28;101800.19;5427229;32;33804;-69
2021/12/15 06:19:38;;;;;;;46.85;24.83;;;;;;;3.05;63.59;101790.25;5432324;32;32856;-71
2021/12/15 06:22:41;;;;;;;56.53;28.43;;;;;;;1.65;67.57;101793.06;5420416;32;33188;-69
2021/12/15 06:25:46;;;;;;;48.00;25.45;;;;;;;1.83;67.82;101796.91;5430436;32;34736;-70
2021/12/15 06:28:49;;;;;;;54.93;27.83;;;;;;;2.62;64.46;101775.75;5424957;32;34136;-70
2021/12/15 06:31:52;;;;;;;59.00;28.35;;;;;;;2.68;64.34;101781.94;5405465;32;34239;-70
2021/12/15 06:34:54;;;;;;;56.83;27.17;;;;;;;1.54;69.89;101791.12;5406197;32;34748;-71
2021/12/15 06:37:57;;;;;;;59.30;28.40;;;;;;;0.51;74.71;101805.22;5407676;32;33666;-70
2021/12/15 06:41:00;;;;;;;52.67;28.20;;;;;;;0.90;76.21;101807.91;5417482;32;35345;-69
2021/12/15 06:44:03;;;;;;;;;;;;;;;0.65;78.09;101805.56;5400852;32;32929;-79
2021/12/15 06:57:12;;;;;;;65.70;30.10;;;;;;;1.21;76.47;101804.25;5414590;32;35718;-74
2021/12/15 06:58:12;;;;;;;72.80;30.73;;;;;;;1.23;74.77;101809.50;5423144;32;35532;-66
2021/12/15 07:01:19;;;;;;;62.57;29.07;;;;;;;1.42;74.97;101811.62;5366662;32;34120;-68
2021/12/15 07:04:22;;;;;;;71.87;33.00;;;;;;;1.99;72.61;101815.31;5367998;32;32928;-66
2021/12/15 07:07:29;;;;;;;69.47;31.13;;;;;;;1.93;72.52;101820.37;5362443;32;35500;-64
2021/12/15 07:10:37;;;;;;;56.60;28.87;;;;;;;2.05;70.73;101808.53;5362661;32;34018;-66
2021/12/15 07:13:42;;;;;;;59.73;29.77;;;;;;;3.30;66.17;101796.66;5360037;32;33193;-65
2021/12/15 07:16:51;;;;;;;74.43;30.87;;;;;;;3.18;64.71;101801.69;5379157;32;34942;-66
2021/12/15 07:23:14;;;;;;;74.07;33.40;;;;;;;1.75;73.02;101819.22;5363757;32;33840;-70
2021/12/15 07:26:17;;;;;;;79.43;34.37;;;;;;;2.15;71.33;101818.25;5375334;32;34216;-69
2021/12/15 07:29:19;;;;;;;76.95;34.38;;;;;;;1.48;75.04;101822.12;5365011;32;34324;-64
2021/12/15 07:32:21;;;;;;;74.93;33.97;;;;;;;1.50;74.79;101814.38;5386929;32;34465;-68
2021/12/15 07:35:24;;;;;;;79.63;35.03;;;;;;;1.72;73.46;101820.84;5402348;32;35024;-71
2021/12/15 07:38:28;;;;;;;71.10;33.23;;;;;;;1.89;73.83;101822.06;5384649;32;35076;-66
2021/12/15 07:41:36;;;;;;;77.80;34.67;;;;;;;1.51;75.71;101824.75;5397734;32;33035;-66
2021/12/15 07:44:38;;;;;;;72.07;33.30;;;;;;;2.14;72.76;101832.06;5394620;32;33932;-65
2021/12/15 07:47:40;;;;;;;73.70;32.40;;;;;;;1.90;74.00;101835.06;5403631;32;35178;-66
2021/12/15 07:50:46;;;;;;;67.73;33.77;;;;;;;1.80;73.85;101835.75;5396305;32;34016;-75
2021/12/15 07:53:49;;;;;;;80.57;39.07;;;;;;;1.80;74.48;101842.63;5391175;32;34001;-69
2021/12/15 07:56:52;;;;;;;70.10;33.97;;;;;;;2.34;73.00;101844.50;5382007;32;33556;-70
2021/12/15 07:59:56;;;;;;;68.27;33.07;;;;;;;1.97;73.67;101855.91;5402327;32;33872;-72
2021/12/15 08:02:59;;;;;;;71.23;34.43;;;;;;;1.72;75.24;101858.00;5413882;32;33491;-74
2021/12/15 08:06:02;;;;;;;68.67;33.20;;;;;;;2.26;73.42;101864.28;5434036;32;33876;-74
2021/12/15 08:09:05;;;;;;;72.70;32.53;;;;;;;1.93;74.72;101867.06;5395398;32;35709;-70
2021/12/15 08:12:08;;;;;;;71.07;33.60;;;;;;;2.76;72.71;101869.44;5423714;32;34092;-70
2021/12/15 08:15:12;;;;;;;70.87;32.00;;;;;;;2.50;73.17;101864.69;5424593;32;32835;-67
2021/12/15 08:18:17;;;;;;;89.15;36.47;;;;;;;3.16;70.94;101870.97;5423452;32;34814;-73
2021/12/15 08:21:29;;;;;;;94.18;35.38;;;;;;;3.30;70.53;101869.44;5399578;32;34552;-73
2021/12/15 08:24:33;;;;;;;85.13;34.87;;;;;;;3.36;70.26;101869.53;5414045;32;34323;-71
2021/12/15 08:27:37;;;;;;;95.18;40.90;;;;;;;3.24;70.61;101871.94;5408586;32;34748;-62
2021/12/15 08:30:41;;;;;;;87.72;35.92;;;;;;;2.56;72.41;101885.56;5425253;32;34106;-71
2021/12/15 08:33:44;;;;;;;96.03;36.00;;;;;;;3.58;70.72;101885.41;5406888;32;35193;-69
2021/12/15 08:36:49;;;;;;;88.53;37.17;;;;;;;2.55;73.05;101893.31;5434948;32;34383;-66
2021/12/15 08:39:52;;;;;;;99.60;37.80;;;;;;;2.35;74.62;101899.03;5422741;32;35196;-67
2021/12/15 08:42:55;;;;;;;92.37;36.07;;;;;;;2.78;74.15;101898.94;5409788;32;35150;-68
2021/12/15 08:46:03;;;;;;;90.20;37.08;;;;;;;2.04;76.66;101904.47;5416922;32;35291;-66
2021/12/15 08:49:07;;;;;;;94.73;37.93;;;;;;;2.51;74.83;101907.94;5408260;32;34938;-66
2021/12/15 08:52:10;;;;;;;98.00;38.60;;;;;;;2.42;75.25;101905.19;5419682;32;34026;-65
2021/12/15 08:55:13;;;;;;;98.80;39.33;;;;;;;2.70;74.44;101907.47;5398547;32;34587;-65
2021/12/15 08:58:19;;;;;;;90.33;37.90;;;;;;;3.55;71.53;101894.06;5400912;32;34105;-64
2021/12/15 09:01:22;;;;;;;93.77;38.00;;;;;;;3.52;69.56;101902.66;5417774;32;33830;-63
2021/12/15 09:04:26;;;;;;;101.82;41.22;;;;;;;3.43;70.02;101901.66;5406257;32;303833;-64
2021/12/15 09:07:33;;;;;;;105.00;40.10;;;;;;;3.17;70.75;101901.28;5424558;32;34801;-69
2021/12/15 09:10:37;;;;;;;102.60;42.03;;;;;;;2.99;72.99;101904.47;5427398;32;32726;-68
2021/12/15 09:13:41;;;;;;;98.40;42.90;;;;;;;2.79;74.25;101901.53;5431609;32;36712;-67
2021/12/15 09:16:47;;;;;;;108.25;43.50;;;;;;;3.12;72.24;101900.34;5411202;32;34571;-66
2021/12/15 09:19:49;;;;;;;92.27;38.43;;;;;;;3.10;72.43;101895.13;5428317;32;34970;-66
2021/12/15 09:22:53;;;;;;;87.83;39.27;;;;;;;3.71;70.50;101901.19;5424866;32;34713;-66
2021/12/15 09:25:55;;;;;;;92.75;38.78;;;;;;;4.34;67.70;101884.59;5400141;32;35090;-63
2021/12/15 09:28:58;;;;;;;82.70;36.83;;;;;;;3.51;69.99;101894.84;5415948;32;34221;-68
2021/12/15 09:32:01;;;;;;;88.53;39.53;;;;;;;4.27;68.50;101890.59;5417929;32;32873;-68
2021/12/15 09:35:04;;;;;;;90.13;37.50;;;;;;;4.73;66.92;101883.22;5410582;32;35058;-82
2021/12/15 09:38:07;;;;;;;93.00;38.70;;;;;;;5.57;63.04;101886.41;5401239;32;35489;-76
2021/12/15 09:41:12;;;;;;;95.87;40.17;;;;;;;4.02;68.06;101878.16;5403341;32;34116;-71
2021/12/15 09:44:19;;;;;;;112.33;42.67;;;;;;;3.87;70.00;101888.41;5405471;32;34701;-69
2021/12/15 09:47:41;;;;;;;104.33;42.63;;;;;;;4.39;68.20;101883.78;5415201;32;34011;-71
2021/12/15 10:17:33;;;;;;;108.72;43.87;;;;;;;4.00;71.33;101885.94;5413654;32;35248;-67
2021/12/15 10:20:39;;;;;;;103.30;41.13;;;;;;;4.52;68.90;101883.03;5398151;32;34836;-64
2021/12/15 10:23:45;;;;;;;101.07;41.33;;;;;;;3.73;71.03;101888.19;5411120;32;34111;-71
2021/12/15 10:26:58;;;;;;;101.70;43.60;;;;;;;3.74;72.58;101895.16;5394009;32;35373;-67
2021/12/15 10:30:05;;;;;;;101.03;40.88;;;;;;;4.31;69.46;101889.75;5392964;32;34268;-63
2021/12/15 10:33:09;;;;;;;99.53;40.90;;;;;;;4.07;71.19;101894.69;5414044;32;35543;-67
2021/12/15 10:36:22;;;;;;;103.37;41.57;;;;;;;4.57;68.35;101891.72;5409138;32;35055;-62
2021/12/15 10:39:25;;;;;;;106.30;43.20;;;;;;;4.42;69.31;101891.59;5422402;32;37198;-63
2021/12/15 10:42:29;;;;;;;94.30;42.03;;;;;;;4.16;71.47;101892.19;5413589;32;34289;-64
2021/12/15 10:45:37;;;;;;;;;;;;;;;4.59;68.17;101885.69;5406505;32;34208;-69
2021/12/15 10:48:59;;;;;;;93.87;40.30;;;;;;;5.36;65.67;101874.13;5421913;32;36026;-68
2021/12/15 10:52:03;;;;;;;90.03;41.13;;;;;;;4.76;68.37;101891.03;5419779;32;33958;-69
2021/12/15 10:55:05;;;;;;;;;;;;;;;4.26;69.70;101893.19;5429788;32;34803;-72
2021/12/15 10:58:31;;;;;;;94.13;41.70;;;;;;;4.72;68.77;101888.41;5407634;32;34530;-78
2021/12/15 11:01:50;;;;;;;99.50;43.40;;;;;;;4.68;69.55;101892.72;5396114;32;35110;-78
2021/12/15 11:05:00;;;;;;;92.77;42.03;;;;;;;4.91;68.56;101882.50;5429582;32;33750;-66
2021/12/15 11:08:03;;;;;;;87.17;39.87;;;;;;;4.87;68.10;101884.19;5410424;32;33538;-69
2021/12/15 11:11:06;;;;;;;86.50;40.20;;;;;;;5.54;66.59;101889.03;5434861;32;34170;-70
2021/12/15 11:14:30;;;;;;;90.10;40.50;;;;;;;4.70;68.44;101893.63;5401038;32;36101;-70
2021/12/15 11:17:41;;;;;;;91.67;42.03;;;;;;;6.26;62.96;101886.72;5431176;32;34201;-68
2021/12/15 11:20:55;;;;;;;87.33;39.83;;;;;;;5.84;63.65;101884.78;5404286;32;34149;-69
2021/12/15 11:23:57;;;;;;;77.43;37.73;;;;;;;5.41;65.60;101888.06;5404428;32;35695;-65
2021/12/15 11:27:17;;;;;;;85.43;38.23;;;;;;;6.41;63.13;101880.66;5420096;32;35449;-71
2021/12/15 11:30:24;;;;;;;85.97;39.80;;;;;;;5.12;66.27;101884.41;5411495;32;34807;-69
2021/12/15 11:33:50;;;;;;;82.53;39.57;;;;;;;5.43;65.88;101881.13;5416384;32;34204;-69
2021/12/15 11:36:52;;;;;;;90.53;42.77;;;;;;;6.35;63.61;101878.91;5416034;32;34406;-65
2021/12/15 11:40:04;;;;;;;80.23;38.90;;;;;;;7.01;60.84;101866.72;5399236;32;34362;-67
2021/12/15 11:43:09;;;;;;;77.37;38.23;;;;;;;6.12;61.87;101871.03;5410034;32;33884;-64
2021/12/15 11:46:34;;;;;;;87.47;41.10;;;;;;;5.26;67.25;101874.94;5401351;32;34275;-68
2021/12/15 11:49:40;;;;;;;88.73;41.60;;;;;;;5.51;65.77;101864.66;5409208;32;34065;-71
2021/12/15 11:52:45;;;;;;;83.23;38.57;;;;;;;6.35;64.04;101858.00;5406909;32;35426;-71
2021/12/15 11:55:48;;;;;;;77.80;38.57;;;;;;;7.58;58.42;101848.31;5412428;32;34076;-72
2021/12/15 11:59:01;;;;;;;75.93;39.90;;;;;;;6.65;61.29;101853.69;5402699;32;35342;-71
2021/12/15 12:02:03;;;;;;;76.03;37.97;;;;;;;6.07;63.66;101869.28;5400015;32;34783;-65
2021/12/15 12:05:07;;;;;;;72.33;38.07;;;;;;;6.74;62.23;101866.75;5411760;32;35106;-68
2021/12/15 12:08:11;;;;;;;73.90;36.30;;;;;;;7.94;57.80;101854.28;5400912;32;34899;-66
2021/12/15 12:11:15;;;;;;;87.60;41.37;;;;;;;6.83;59.78;101863.25;5411651;32;33981;-67
2021/12/15 12:14:37;;;;;;;73.62;37.30;;;;;;;6.05;64.30;101858.78;5399758;32;33944;-71
2021/12/15 12:17:43;;;;;;;69.47;38.37;;;;;;;6.82;60.93;101861.53;5410671;32;34582;-71
2021/12/15 12:20:55;;;;;;;68.87;36.47;;;;;;;6.46;62.18;101860.66;5396535;32;34301;-65
2021/12/15 12:23:57;;;;;;;65.67;35.67;;;;;;;6.00;63.35;101857.94;5400107;32;34221;-67
2021/12/15 12:27:00;;;;;;;72.63;35.17;;;;;;;6.88;61.08;101853.69;5398282;32;35027;-66
2021/12/15 12:30:08;;;;;;;66.50;33.70;;;;;;;7.15;60.05;101852.78;5409029;32;34040;-63
2021/12/15 12:33:13;;;;;;;65.50;34.30;;;;;;;7.86;57.61;101843.84;5415964;32;34828;-64
2021/12/15 12:36:22;;;;;;;75.43;35.73;;;;;;;7.58;58.25;101851.78;5419310;32;34339;-63
2021/12/15 12:39:32;;;;;;;75.40;36.60;;;;;;;7.23;58.64;101853.66;5408134;32;35167;-67
2021/12/15 12:42:37;;;;;;;65.57;35.57;;;;;;;7.77;58.02;101849.09;5397457;32;34752;-71
2021/12/15 12:45:42;;;;;;;74.53;37.93;;;;;;;7.10;60.04;101850.19;5421001;32;34869;-65
2021/12/15 12:49:15;;;;;;;;;;;;;;;5.88;63.82;101860.47;5413119;32;34709;-64
2021/12/15 12:59:40;;;;;;;78.03;36.30;;;;;;;7.63;58.44;101845.69;5427393;32;34429;-64
2021/12/15 13:02:48;;;;;;;85.40;37.03;;;;;;;8.05;56.50;101848.13;5419415;32;34544;-63
2021/12/15 13:05:59;;;;;;;75.97;35.47;;;;;;;7.44;58.45;101837.03;5416408;32;34803;-67
2021/12/15 13:09:11;;;;;;;72.83;37.67;;;;;;;7.14;60.42;101830.13;5426656;32;33851;-65
2021/12/15 13:12:20;;;;;;;73.20;35.47;;;;;;;7.86;57.66;101825.53;5426876;32;34251;-69
2021/12/15 13:15:23;;;;;;;69.77;37.37;;;;;;;7.71;57.94;101817.72;5413335;32;35646;-68
2021/12/15 13:18:28;;;;;;;74.43;36.67;;;;;;;6.95;60.59;101816.22;5428571;32;34884;-64
2021/12/15 13:22:20;;;;;;;74.43;36.10;;;;;;;7.72;58.25;101816.84;5426765;32;33959;-67
2021/12/15 13:28:48;;;;;;;67.23;37.13;;;;;;;7.56;58.57;101814.31;5431343;32;34639;-63
2021/12/15 13:31:56;;;;;;;70.17;35.97;;;;;;;7.13;59.96;101820.53;5416321;32;34350;-61
2021/12/15 13:34:59;;;;;;;76.23;38.57;;;;;;;7.84;57.37;101808.94;5414931;32;33988;-68
2021/12/15 13:38:33;;;;;;;70.77;38.80;;;;;;;8.07;57.19;101814.06;5422103;32;33953;-65
2021/12/15 13:42:00;;;;;;;72.23;35.93;;;;;;;7.40;58.69;101820.47;5427630;32;35163;-64
2021/12/15 13:45:03;;;;;;;79.40;38.00;;;;;;;8.44;56.09;101824.31;5416571;32;34544;-62
2021/12/15 13:48:06;;;;;;;84.13;43.20;;;;;;;8.37;55.62;101823.47;5428025;32;34402;-65
2021/12/15 13:51:08;;;;;;;68.57;38.17;;;;;;;8.18;56.71;101825.34;5426272;32;34662;-65
2021/12/15 13:54:33;;;;;;;83.93;39.22;;;;;;;8.73;54.77;101829.31;5429889;32;37559;-65
2021/12/15 13:57:59;;;;;;;78.35;38.03;;;;;;;7.51;58.62;101836.13;5429731;32;34006;-65
2021/12/15 14:01:08;;;;;;;69.47;37.00;;;;;;;8.35;55.98;101828.72;5430835;32;34110;-63
2021/12/15 14:04:43;;;;;;;73.90;35.67;;;;;;;8.47;55.60;101830.41;5430382;32;33938;-65
2021/12/15 14:07:50;;;;;;;78.37;37.90;;;;;;;8.48;55.31;101833.87;5417621;32;32836;-69
2021/12/15 14:10:57;;;;;;;74.30;37.73;;;;;;;8.47;55.35;101834.78;5412875;32;33958;-71
2021/12/15 14:14:28;;;;;;;80.30;39.43;;;;;;;8.12;56.53;101839.34;5430540;32;33551;-67
2021/12/15 14:17:30;;;;;;;97.67;46.37;;;;;;;6.85;59.79;101849.34;5433002;32;33931;-69
2021/12/15 14:20:37;;;;;;;92.73;46.63;;;;;;;6.69;62.09;101864.13;5436560;32;33937;-71
2021/12/15 14:23:41;;;;;;;87.60;43.47;;;;;;;6.87;61.71;101865.88;5419743;32;33855;-67
2021/12/15 14:27:04;;;;;;;70.32;38.13;;;;;;;6.85;61.17;101862.41;5436176;32;34567;-66
2021/12/15 14:30:08;;;;;;;76.75;40.30;;;;;;;8.09;56.85;101839.34;5429128;32;33960;-68
2021/12/15 14:33:21;;;;;;;75.23;38.77;;;;;;;7.53;58.49;101855.28;5418959;32;33852;-69
2021/12/15 14:36:28;;;;;;;78.68;38.00;;;;;;;6.57;61.35;101855.41;5424250;32;33928;-63
2021/12/15 14:39:37;;;;;;;69.77;36.70;;;;;;;6.83;60.32;101852.81;5434503;32;34690;-66
2021/12/15 14:42:42;;;;;;;67.80;31.07;;;;;;;7.11;59.49;101849.31;5436509;32;33889;-65
2021/12/15 14:45:46;;;;;;;61.53;32.63;;;;;;;7.05;59.78;101844.09;5427298;32;35716;-65
2021/12/15 14:49:01;;;;;;;53.33;28.27;;;;;;;7.35;59.09;101843.16;5436181;32;34053;-66
2021/12/15 14:52:29;;;;;;;57.87;29.20;;;;;;;6.14;63.22;101866.69;5418668;32;34156;-62
2021/12/15 14:55:33;;;;;;;52.67;30.20;;;;;;;6.51;61.43;101857.16;5419086;32;35071;-68
2021/12/15 14:58:42;;;;;;;61.13;29.07;;;;;;;6.16;62.41;101858.84;5440502;32;35061;-72
2021/12/15 15:01:49;;;;;;;67.37;30.62;;;;;;;6.27;62.11;101856.25;5433903;32;34091;-69
2021/12/15 15:04:58;;;;;;;51.57;27.23;;;;;;;5.76;64.29;101856.06;5436138;32;33949;-70
2021/12/15 15:08:28;;;;;;;46.90;25.77;;;;;;;6.17;63.19;101857.97;5419718;32;33919;-66
2021/12/15 15:11:31;;;;;;;50.13;25.50;;;;;;;5.77;63.67;101865.62;5435838;32;34973;-69
2021/12/15 15:14:33;;;;;;;46.00;25.17;;;;;;;5.88;64.10;101863.94;5438902;32;33319;-69
2021/12/15 15:17:51;;;;;;;53.50;26.43;;;;;;;4.94;66.85;101856.47;5421285;32;36090;-66
2021/12/15 15:20:59;;;;;;;48.33;26.77;;;;;;;4.77;67.90;101852.88;5429378;32;34026;-69
2021/12/15 15:24:02;;;;;;;53.90;25.60;;;;;;;5.43;65.36;101856.78;5417303;32;34096;-67
2021/12/15 15:27:06;;;;;;;52.30;26.87;;;;;;;6.04;63.27;101837.91;5428407;32;35893;-69
2021/12/15 15:30:14;;;;;;;45.37;25.37;;;;;;;6.33;62.60;101840.59;5428600;32;34624;-69
2021/12/15 15:33:30;;;;;;;46.87;24.27;;;;;;;6.48;61.87;101849.31;5409556;32;35532;-67
2021/12/15 15:36:33;;;;;;;47.77;25.57;;;;;;;6.61;60.83;101850.19;5432431;32;33749;-62
2021/12/15 15:40:24;;;;;;;43.80;25.07;;;;;;;5.34;65.49;101849.75;5418736;32;34634;-68
2021/12/15 15:43:35;;;;;;;44.10;25.17;;;;;;;5.90;63.73;101851.75;5434035;32;34089;-63